Time;durP1;ratioP1;P1;durP2;ratioP2;P2;SDS_P1;SDS_P2;PMS_P1;PMS_P2;Temp;Humidity;BMP_temperature;BMP_pressure;BME280_temperature;BME280_humidity;BME280_pressure;Samples;Min_cycle;Max_cycle;Signal;HPM_P1;HPM_P2
2023/12/16 00:00:43;;;;;;;28.23;12.23;;;;;;;6.90;100.00;102906.66;5027519;28;20261;-76
2023/12/16 00:03:10;;;;;;;28.60;13.40;;;;;;;6.89;100.00;102914.63;5028637;28;20228;-77
2023/12/16 00:05:37;;;;;;;28.13;12.70;;;;;;;6.89;100.00;102915.50;5030753;28;20253;-77
2023/12/16 00:08:04;;;;;;;26.63;13.57;;;;;;;6.86;100.00;102915.53;5027859;28;20206;-74
2023/12/16 00:10:31;;;;;;;31.77;13.93;;;;;;;6.86;100.00;102912.00;5029686;28;20727;-75
2023/12/16 00:12:57;;;;;;;29.97;12.40;;;;;;;6.83;100.00;102907.63;5031146;28;20206;-75
2023/12/16 00:15:25;;;;;;;28.20;11.43;;;;;;;6.81;100.00;102901.47;5028283;28;20653;-78
2023/12/16 00:17:51;;;;;;;23.30;11.60;;;;;;;6.79;100.00;102892.69;5026388;28;20225;-74
2023/12/16 00:20:18;;;;;;;29.13;12.43;;;;;;;6.75;100.00;102892.75;5027605;28;20222;-75
2023/12/16 00:22:45;;;;;;;19.53;11.37;;;;;;;6.73;100.00;102889.22;5023483;28;20206;-74
2023/12/16 00:25:13;;;;;;;23.33;11.87;;;;;;;6.72;100.00;102896.28;5031071;28;20210;-78
2023/12/16 00:27:39;;;;;;;23.27;12.33;;;;;;;6.70;100.00;102900.72;5020205;28;20202;-75
2023/12/16 00:30:07;;;;;;;23.27;11.67;;;;;;;6.71;100.00;102906.91;5028009;28;20229;-75
2023/12/16 00:32:35;;;;;;;22.67;12.37;;;;;;;6.71;100.00;102894.53;5022619;28;20221;-72
2023/12/16 00:35:02;;;;;;;26.23;12.07;;;;;;;6.71;100.00;102907.78;5033016;28;20202;-75
2023/12/16 00:37:28;;;;;;;22.33;12.17;;;;;;;6.70;100.00;102907.78;5036958;28;20625;-75
2023/12/16 00:39:55;;;;;;;25.10;12.00;;;;;;;6.71;100.00;102910.44;5027169;28;20590;-77
2023/12/16 00:42:21;;;;;;;23.90;12.53;;;;;;;6.68;100.00;102913.09;5032406;28;20666;-75
2023/12/16 00:44:48;;;;;;;29.57;13.13;;;;;;;6.67;100.00;102913.13;5029724;28;20587;-76
2023/12/16 00:47:14;;;;;;;25.70;11.93;;;;;;;6.65;100.00;102915.78;5033973;28;20716;-75
2023/12/16 00:49:42;;;;;;;27.70;11.03;;;;;;;6.65;100.00;102913.13;5025852;28;20210;-77
2023/12/16 00:52:09;;;;;;;18.93;9.43;;;;;;;6.63;100.00;102902.56;5036010;28;20213;-75
2023/12/16 00:54:35;;;;;;;21.30;11.23;;;;;;;6.65;100.00;102907.84;5030977;28;20263;-74
2023/12/16 00:57:02;;;;;;;25.40;10.40;;;;;;;6.63;100.00;102906.97;5030615;28;20230;-77
2023/12/16 00:59:29;;;;;;;20.43;10.03;;;;;;;6.61;100.00;102916.72;5035479;28;20292;-76
2023/12/16 01:01:55;;;;;;;18.07;10.53;;;;;;;6.60;100.00;102913.22;5032358;28;20682;-74
2023/12/16 01:04:22;;;;;;;25.57;10.87;;;;;;;6.59;100.00;102916.75;5036202;28;20206;-75
2023/12/16 01:06:50;;;;;;;24.57;10.67;;;;;;;6.58;100.00;102924.69;5038162;28;20237;-76
2023/12/16 01:09:16;;;;;;;20.37;9.77;;;;;;;6.60;100.00;102934.38;5032631;28;20700;-75
2023/12/16 01:11:43;;;;;;;19.93;10.43;;;;;;;6.61;100.00;102914.09;5034077;28;20320;-74
2023/12/16 01:14:09;;;;;;;22.70;10.17;;;;;;;6.62;100.00;102915.84;5034180;28;20685;-74
2023/12/16 01:16:36;;;;;;;23.17;9.77;;;;;;;6.61;100.00;102901.72;5025042;28;20209;-75
2023/12/16 01:19:03;;;;;;;17.47;8.50;;;;;;;6.65;100.00;102909.59;5034962;28;20202;-76
2023/12/16 01:21:29;;;;;;;20.27;9.27;;;;;;;6.64;100.00;102914.03;5028073;28;20256;-75
2023/12/16 01:23:57;;;;;;;20.97;8.93;;;;;;;6.67;100.00;102913.13;5034142;28;20202;-74
2023/12/16 01:26:23;;;;;;;16.03;8.23;;;;;;;6.67;100.00;102906.06;5033513;28;20225;-75
2023/12/16 01:28:50;;;;;;;18.93;8.17;;;;;;;6.67;100.00;102907.81;5028908;28;20218;-75
2023/12/16 01:31:18;;;;;;;19.07;7.33;;;;;;;6.70;100.00;102903.38;5027453;28;20226;-74
2023/12/16 01:33:45;;;;;;;15.47;7.53;;;;;;;6.71;100.00;102896.31;5029315;28;20209;-75
2023/12/16 01:36:11;;;;;;;16.40;8.33;;;;;;;6.68;100.00;102905.16;5025841;28;20197;-75
2023/12/16 01:38:37;;;;;;;17.80;7.47;;;;;;;6.69;100.00;102913.97;5031837;28;20202;-74
2023/12/16 01:41:06;;;;;;;15.97;7.30;;;;;;;6.71;100.00;102907.78;5044717;22;20245;-77
2023/12/16 01:43:32;;;;;;;15.07;7.80;;;;;;;6.72;100.00;102904.25;5022001;28;20213;-74
2023/12/16 01:46:04;;;;;;;20.77;8.93;;;;;;;6.71;99.80;102905.13;5021022;28;20239;-77
2023/12/16 01:48:31;;;;;;;18.47;7.63;;;;;;;6.76;99.74;102913.91;5020440;28;20214;-76
2023/12/16 01:50:58;;;;;;;13.40;7.03;;;;;;;6.75;100.00;102911.28;5017315;28;20231;-77
2023/12/16 01:53:26;;;;;;;17.53;7.83;;;;;;;6.76;99.56;102924.50;5005506;28;20230;-77
2023/12/16 01:55:53;;;;;;;15.50;7.00;;;;;;;6.76;99.03;102923.63;5004059;28;20211;-78
2023/12/16 01:58:22;;;;;;;17.83;7.30;;;;;;;6.77;98.55;102920.09;5006172;28;20199;-77
2023/12/16 02:00:52;;;;;;;16.20;7.00;;;;;;;6.78;98.13;102917.41;5002361;28;20594;-76
2023/12/16 02:03:19;;;;;;;12.33;6.60;;;;;;;6.78;97.76;102917.41;5001720;28;20207;-77
2023/12/16 02:05:46;;;;;;;15.40;6.43;;;;;;;6.78;97.70;102928.00;5003570;28;20586;-77
2023/12/16 02:08:13;;;;;;;14.87;6.57;;;;;;;6.77;97.90;102926.25;5002759;28;20211;-76
2023/12/16 02:10:39;;;;;;;11.40;5.80;;;;;;;6.80;97.23;102920.06;5005530;28;20234;-75
2023/12/16 02:13:06;;;;;;;14.53;6.93;;;;;;;6.78;96.44;102920.06;5011044;28;20228;-78
2023/12/16 02:15:34;;;;;;;15.80;6.23;;;;;;;6.79;96.56;102916.53;5004718;28;20198;-75
2023/12/16 02:18:01;;;;;;;9.50;5.40;;;;;;;6.75;96.54;102914.81;5006203;28;20237;-77
2023/12/16 02:20:27;;;;;;;13.43;6.47;;;;;;;6.77;96.03;102912.13;4995974;28;20226;-76
2023/12/16 02:22:54;;;;;;;11.63;6.17;;;;;;;6.75;95.76;102912.16;4995629;28;20212;-76
2023/12/16 02:25:22;;;;;;;10.63;5.70;;;;;;;6.75;95.46;102916.56;4999762;28;20207;-77
2023/12/16 02:27:49;;;;;;;11.30;6.10;;;;;;;6.72;95.06;102920.13;5004238;28;20241;-77
2023/12/16 02:30:15;;;;;;;11.37;6.13;;;;;;;6.72;95.46;102912.19;5007040;28;20237;-76
2023/12/16 02:32:42;;;;;;;10.77;5.93;;;;;;;6.72;95.02;102920.13;5000143;28;20199;-76
2023/12/16 02:35:09;;;;;;;13.30;5.50;;;;;;;6.75;94.08;102917.44;5004786;28;20209;-77
2023/12/16 02:37:35;;;;;;;11.50;5.33;;;;;;;6.75;93.48;102920.09;5004124;28;20199;-77
2023/12/16 02:40:02;;;;;;;12.50;4.87;;;;;;;6.74;93.57;102926.28;4995688;28;20207;-77
2023/12/16 02:42:31;;;;;;;10.97;6.10;;;;;;;6.76;93.75;102928.91;5001823;28;20315;-77
2023/12/16 02:44:57;;;;;;;10.33;5.63;;;;;;;6.76;92.61;102928.91;5005878;28;20207;-76
2023/12/16 02:47:24;;;;;;;12.03;5.57;;;;;;;6.73;92.22;102926.31;5005280;28;20234;-78
2023/12/16 02:49:50;;;;;;;9.70;4.70;;;;;;;6.73;92.10;102932.47;5003089;28;20222;-77
2023/12/16 02:52:16;;;;;;;11.23;5.03;;;;;;;6.73;91.86;102929.81;5005644;28;20210;-76
2023/12/16 02:54:43;;;;;;;10.47;4.50;;;;;;;6.72;91.38;102921.91;5003182;28;20207;-76
2023/12/16 02:57:09;;;;;;;11.70;4.73;;;;;;;6.73;91.02;102911.28;5005260;28;20203;-75
2023/12/16 02:59:37;;;;;;;13.10;4.43;;;;;;;6.73;91.23;102918.34;5005916;28;20223;-77
2023/12/16 03:02:04;;;;;;;12.13;4.93;;;;;;;6.73;90.42;102919.22;5003520;28;20239;-77
2023/12/16 03:04:30;;;;;;;12.43;5.03;;;;;;;6.75;90.40;102919.22;5003592;28;20214;-76
2023/12/16 03:06:57;;;;;;;10.83;4.23;;;;;;;6.73;90.22;102923.66;5005903;28;20231;-77
2023/12/16 03:09:23;;;;;;;11.13;5.37;;;;;;;6.74;89.50;102921.00;4999423;28;20727;-76
2023/12/16 03:11:51;;;;;;;8.77;4.30;;;;;;;6.74;89.66;102925.41;5003401;28;20230;-76
2023/12/16 03:14:18;;;;;;;10.53;3.80;;;;;;;6.75;89.19;102914.81;5004888;28;20230;-76
2023/12/16 03:16:46;;;;;;;8.80;3.77;;;;;;;6.77;89.04;102931.56;5000748;28;20203;-77
2023/12/16 03:19:12;;;;;;;9.77;4.90;;;;;;;6.77;88.40;102934.19;5006036;28;20207;-77
2023/12/16 03:21:39;;;;;;;10.43;4.23;;;;;;;6.79;88.76;102950.06;5006126;28;20223;-75
2023/12/16 03:24:06;;;;;;;11.53;4.53;;;;;;;6.77;89.34;102947.44;5004959;28;20203;-77
2023/12/16 03:26:32;;;;;;;10.30;4.10;;;;;;;6.76;89.47;102940.38;5004550;28;20230;-77
2023/12/16 03:28:59;;;;;;;11.93;4.83;;;;;;;6.78;88.51;102932.44;5003286;28;20203;-76
2023/12/16 03:31:25;;;;;;;11.13;4.23;;;;;;;6.77;88.60;102941.28;5006479;28;20222;-75
2023/12/16 03:33:53;;;;;;;8.77;4.40;;;;;;;6.74;88.66;102939.53;5000904;28;20416;-74
2023/12/16 03:36:20;;;;;;;13.60;5.20;;;;;;;6.76;89.61;102943.03;5003722;28;20210;-74
2023/12/16 03:38:46;;;;;;;11.70;5.17;;;;;;;6.76;89.59;102939.50;5001795;28;20211;-77
2023/12/16 03:41:13;;;;;;;10.83;4.50;;;;;;;6.74;89.86;102942.19;5013904;28;20246;-77
2023/12/16 03:43:39;;;;;;;15.07;5.60;;;;;;;6.74;90.13;102936.00;5009240;28;20204;-77
2023/12/16 03:46:07;;;;;;;16.70;5.30;;;;;;;6.76;90.15;102934.22;5011154;28;20202;-77
2023/12/16 03:48:34;;;;;;;16.33;5.00;;;;;;;6.75;89.79;102936.00;5007101;28;20219;-76
2023/12/16 03:51:02;;;;;;;12.00;4.93;;;;;;;6.74;90.17;102934.22;5010666;28;20238;-75
2023/12/16 03:53:28;;;;;;;8.87;4.50;;;;;;;6.76;90.80;102929.81;5008402;28;20210;-77
2023/12/16 03:55:55;;;;;;;12.27;5.37;;;;;;;6.77;90.13;102926.25;5008775;28;20233;-77
2023/12/16 03:58:21;;;;;;;20.80;6.23;;;;;;;6.76;90.76;102928.91;4996226;28;20203;-75
2023/12/16 04:00:47;;;;;;;13.07;5.80;;;;;;;6.74;90.08;102931.59;5006389;28;20235;-75
2023/12/16 04:03:14;;;;;;;14.10;4.90;;;;;;;6.76;89.64;102929.81;5009024;28;20874;-77
2023/12/16 04:05:42;;;;;;;10.77;5.10;;;;;;;6.74;90.38;102928.94;5004403;28;20238;-76
2023/12/16 04:08:10;;;;;;;14.33;5.10;;;;;;;6.75;90.43;102924.50;5001211;28;20496;-76
2023/12/16 04:10:36;;;;;;;12.57;5.20;;;;;;;6.74;89.86;102931.59;5003709;28;20237;-77
2023/12/16 04:13:03;;;;;;;16.57;5.77;;;;;;;6.73;90.01;102926.31;5013819;28;20207;-76
2023/12/16 04:15:29;;;;;;;11.10;4.93;;;;;;;6.75;89.34;102922.75;5006687;28;20282;-76
2023/12/16 04:17:56;;;;;;;12.67;5.27;;;;;;;6.76;89.90;102923.63;5009094;28;20630;-77
2023/12/16 04:20:22;;;;;;;15.10;5.30;;;;;;;6.75;88.61;102930.69;5018779;28;20227;-76
2023/12/16 04:22:49;;;;;;;13.20;4.80;;;;;;;6.74;89.10;102926.28;5012651;28;20618;-77
2023/12/16 04:25:16;;;;;;;7.73;3.63;;;;;;;6.75;89.12;102928.03;5014455;28;20210;-76
2023/12/16 04:27:43;;;;;;;9.90;4.20;;;;;;;6.73;88.33;102919.22;5010526;28;20714;-76
2023/12/16 04:30:10;;;;;;;10.77;4.30;;;;;;;6.72;88.59;102914.84;5005830;28;20203;-76
2023/12/16 04:32:37;;;;;;;13.80;4.97;;;;;;;6.69;88.11;102917.50;5007014;28;20693;-77
2023/12/16 04:35:04;;;;;;;11.70;4.20;;;;;;;6.70;87.77;102902.50;5000768;28;20275;-75
2023/12/16 04:37:30;;;;;;;10.77;3.77;;;;;;;6.69;88.02;102906.91;5009726;28;20199;-76
2023/12/16 04:39:57;;;;;;;11.70;3.80;;;;;;;6.69;87.36;102900.75;5009987;28;20218;-77
2023/12/16 04:42:25;;;;;;;7.03;3.50;;;;;;;6.69;87.56;102898.97;5009825;28;20214;-77
2023/12/16 04:44:51;;;;;;;10.50;3.33;;;;;;;6.69;86.89;102900.75;5004963;28;20207;-77
2023/12/16 04:47:17;;;;;;;6.33;3.67;;;;;;;6.70;86.94;102911.31;5011031;28;20227;-76
2023/12/16 04:49:44;;;;;;;9.03;3.33;;;;;;;6.71;87.29;102920.13;5006100;28;20210;-77
2023/12/16 04:52:10;;;;;;;15.53;4.10;;;;;;;6.70;87.01;102913.09;5004765;28;20219;-74
2023/12/16 04:54:37;;;;;;;7.87;3.07;;;;;;;6.70;86.28;102923.69;5003440;28;20208;-76
2023/12/16 04:57:04;;;;;;;12.17;3.60;;;;;;;6.69;86.76;102921.94;5005620;28;20227;-76
2023/12/16 04:59:31;;;;;;;9.10;3.83;;;;;;;6.69;86.50;102933.41;5004729;28;20198;-77
2023/12/16 05:01:58;;;;;;;8.33;3.27;;;;;;;6.69;86.88;102935.16;5007509;28;20230;-77
2023/12/16 05:04:24;;;;;;;12.40;4.20;;;;;;;6.70;86.80;102948.41;5006176;28;20238;-76
2023/12/16 05:06:51;;;;;;;10.33;3.00;;;;;;;6.71;86.55;102959.88;5004359;28;20222;-76
2023/12/16 05:09:17;;;;;;;7.73;3.87;;;;;;;6.70;87.68;102963.41;5001745;28;20203;-75
2023/12/16 05:11:44;;;;;;;8.97;4.03;;;;;;;6.73;87.49;102968.66;5006677;28;20237;-76
2023/12/16 05:14:10;;;;;;;8.53;3.87;;;;;;;6.71;87.18;102968.69;5005737;28;20214;-77
2023/12/16 05:16:38;;;;;;;8.87;4.13;;;;;;;6.73;87.49;102966.03;5004703;28;20212;-77
2023/12/16 05:19:04;;;;;;;12.43;4.40;;;;;;;6.73;88.38;102969.56;5004281;28;20426;-77
2023/12/16 05:21:30;;;;;;;6.97;4.07;;;;;;;6.72;87.90;102969.56;5008549;28;20602;-78
2023/12/16 05:23:57;;;;;;;15.43;6.27;;;;;;;6.73;88.26;102969.56;5004660;28;20215;-77
2023/12/16 05:26:23;;;;;;;7.93;5.27;;;;;;;6.72;88.56;102964.28;4999296;28;20208;-78
2023/12/16 05:28:49;;;;;;;12.87;5.03;;;;;;;6.73;88.36;102969.56;5002353;28;20235;-77
2023/12/16 05:31:15;;;;;;;15.20;4.67;;;;;;;6.72;87.72;102970.44;5003430;28;20223;-76
2023/12/16 05:33:44;;;;;;;11.23;4.93;;;;;;;6.71;88.24;102971.34;5007994;28;20213;-77
2023/12/16 05:36:11;;;;;;;15.00;5.47;;;;;;;6.71;88.04;102975.75;5007348;28;20249;-76
2023/12/16 05:38:38;;;;;;;12.47;5.07;;;;;;;6.71;88.15;102978.41;5004708;28;20198;-76
2023/12/16 05:41:06;;;;;;;10.37;4.13;;;;;;;6.73;88.33;102976.63;5003727;28;20253;-76
2023/12/16 05:43:32;;;;;;;12.30;4.50;;;;;;;6.72;87.82;102977.50;5010554;28;20277;-76
2023/12/16 05:45:59;;;;;;;10.90;5.20;;;;;;;6.68;87.85;102976.66;5003146;28;20215;-76
2023/12/16 05:48:26;;;;;;;9.87;4.80;;;;;;;6.69;88.00;102986.34;5007969;28;20709;-76
2023/12/16 05:50:54;;;;;;;11.20;5.10;;;;;;;6.69;87.87;102978.41;5005015;28;20804;-78
2023/12/16 05:53:20;;;;;;;13.10;5.03;;;;;;;6.69;87.64;102975.75;5006041;28;20683;-76
2023/12/16 05:55:47;;;;;;;11.23;4.77;;;;;;;6.68;87.79;102987.25;5003798;28;20788;-76
2023/12/16 05:58:14;;;;;;;12.57;6.40;;;;;;;6.70;86.92;102974.88;5006276;28;20214;-77
2023/12/16 06:00:40;;;;;;;11.77;5.90;;;;;;;6.74;86.58;102978.38;5006199;28;20616;-76
2023/12/16 06:03:07;;;;;;;12.67;5.03;;;;;;;6.71;86.50;102989.00;5005506;28;20211;-76
2023/12/16 06:05:33;;;;;;;10.67;5.07;;;;;;;6.68;87.48;102989.91;5008998;28;20216;-78
2023/12/16 06:08:01;;;;;;;13.63;5.03;;;;;;;6.71;86.89;102987.22;5002765;28;20234;-77
2023/12/16 06:10:27;;;;;;;13.43;4.80;;;;;;;6.70;86.75;102987.22;5010903;28;20229;-77
2023/12/16 06:12:54;;;;;;;11.07;4.53;;;;;;;6.71;85.70;102973.97;5004058;28;20211;-76
2023/12/16 06:15:20;;;;;;;9.23;4.33;;;;;;;6.72;86.21;102985.44;5003580;28;20207;-76
2023/12/16 06:17:47;;;;;;;12.43;4.70;;;;;;;6.70;85.85;102988.13;5005115;28;20206;-77
2023/12/16 06:20:13;;;;;;;11.70;4.37;;;;;;;6.69;85.77;102986.34;5005728;28;20241;-77
2023/12/16 06:22:40;;;;;;;11.20;4.13;;;;;;;6.68;85.84;102989.91;5002472;28;20225;-77
2023/12/16 06:25:08;;;;;;;13.43;3.63;;;;;;;6.68;84.85;102995.19;5003842;28;20690;-75
2023/12/16 06:27:34;;;;;;;11.47;3.70;;;;;;;6.67;84.63;102992.56;4999343;28;20227;-76
2023/12/16 06:30:01;;;;;;;11.43;3.50;;;;;;;6.68;84.61;103002.25;5004996;28;20938;-77
2023/12/16 06:32:27;;;;;;;9.07;3.03;;;;;;;6.68;84.30;102997.84;5007500;28;20206;-76
2023/12/16 06:34:54;;;;;;;8.57;2.90;;;;;;;6.66;84.17;102994.31;5006910;28;20203;-76
2023/12/16 06:37:20;;;;;;;10.87;3.33;;;;;;;6.68;83.90;103000.50;5009371;28;20202;-75
2023/12/16 06:39:47;;;;;;;8.63;3.27;;;;;;;6.69;83.43;103004.00;5003671;28;20207;-77
2023/12/16 06:42:14;;;;;;;8.67;3.50;;;;;;;6.67;83.66;103014.63;5005320;28;20241;-77
2023/12/16 06:44:42;;;;;;;11.70;4.83;;;;;;;6.67;83.52;103014.63;5003583;28;20649;-78
2023/12/16 06:47:08;;;;;;;12.03;3.43;;;;;;;6.71;82.72;103007.53;5006386;28;20199;-75
2023/12/16 06:49:35;;;;;;;6.40;3.50;;;;;;;6.73;83.31;103013.69;5004100;28;20221;-77
2023/12/16 06:52:01;;;;;;;11.40;3.30;;;;;;;6.71;83.44;103016.34;5001762;28;20715;-77
2023/12/16 06:54:28;;;;;;;14.47;4.10;;;;;;;6.74;83.44;103015.44;5005309;28;20674;-75
2023/12/16 06:56:54;;;;;;;12.20;3.53;;;;;;;6.72;83.36;103028.69;5005748;28;20681;-76
2023/12/16 06:59:22;;;;;;;8.73;3.90;;;;;;;6.74;83.26;103024.28;5003288;28;20290;-77
2023/12/16 07:01:49;;;;;;;10.77;3.77;;;;;;;6.73;83.22;103035.75;5003456;28;20238;-75
2023/12/16 07:04:15;;;;;;;10.30;3.10;;;;;;;6.75;83.37;103028.69;5005490;28;20203;-76
2023/12/16 07:06:41;;;;;;;10.63;3.77;;;;;;;6.74;83.41;103018.09;5007425;28;20246;-77
2023/12/16 07:09:08;;;;;;;11.67;3.83;;;;;;;6.75;82.98;103025.16;5008756;28;20752;-75
2023/12/16 07:11:35;;;;;;;8.73;3.63;;;;;;;6.74;83.49;103015.44;5014610;28;20600;-77
2023/12/16 07:14:01;;;;;;;10.63;3.33;;;;;;;6.76;83.45;103021.63;5007182;28;20199;-76
2023/12/16 07:16:30;;;;;;;19.10;4.47;;;;;;;6.72;83.92;103017.22;5009640;28;20203;-77
2023/12/16 07:18:57;;;;;;;10.73;3.20;;;;;;;6.72;84.01;103028.69;5006749;28;20226;-77
2023/12/16 07:21:23;;;;;;;9.10;4.10;;;;;;;6.70;83.49;103029.59;5010577;28;20226;-75
2023/12/16 07:23:50;;;;;;;12.90;4.07;;;;;;;6.68;83.71;103026.97;5013390;28;20472;-74
2023/12/16 07:26:16;;;;;;;14.63;3.47;;;;;;;6.66;82.93;103018.16;5007666;28;20203;-77
2023/12/16 07:28:42;;;;;;;14.70;3.63;;;;;;;6.66;83.29;103022.56;5009359;28;20706;-76
2023/12/16 07:31:09;;;;;;;8.33;2.93;;;;;;;6.63;82.75;103017.34;5010502;28;20222;-75
2023/12/16 07:33:37;;;;;;;8.87;3.00;;;;;;;6.60;83.16;103023.53;5008189;28;20238;-78
2023/12/16 07:36:04;;;;;;;8.70;2.93;;;;;;;6.57;83.06;103020.91;5009907;28;20202;-76
2023/12/16 07:38:30;;;;;;;8.70;2.57;;;;;;;6.54;83.06;103023.56;5006420;28;20206;-75
2023/12/16 07:40:57;;;;;;;9.50;3.20;;;;;;;6.50;83.21;103021.84;5033009;22;20238;-77
2023/12/16 07:43:24;;;;;;;12.17;3.30;;;;;;;6.50;83.52;103020.06;5049893;28;20248;-76
2023/12/16 07:45:50;;;;;;;6.17;2.67;;;;;;;6.48;82.61;103011.25;5058797;28;20296;-76
2023/12/16 07:48:17;;;;;;;7.37;2.50;;;;;;;6.47;82.43;103019.22;5047062;28;20240;-76
2023/12/16 07:50:45;;;;;;;10.50;2.90;;;;;;;6.45;83.00;103019.22;5056357;28;20208;-74
2023/12/16 07:53:11;;;;;;;12.27;2.73;;;;;;;6.45;82.59;103019.22;5045816;28;20206;-76
2023/12/16 07:55:38;;;;;;;10.17;3.13;;;;;;;6.46;82.59;103014.81;5054068;28;20217;-75
2023/12/16 07:58:04;;;;;;;7.47;2.10;;;;;;;6.41;82.51;103024.56;5051876;28;20206;-75
2023/12/16 08:00:30;;;;;;;10.63;2.40;;;;;;;6.40;82.52;103022.81;5044188;28;20216;-76
2023/12/16 08:02:57;;;;;;;12.90;3.53;;;;;;;6.36;82.86;103015.78;5049298;28;20654;-77
2023/12/16 08:05:24;;;;;;;10.33;3.50;;;;;;;6.37;82.87;103015.78;5050143;28;20206;-76
2023/12/16 08:07:52;;;;;;;11.87;2.60;;;;;;;6.36;83.02;103018.44;5045165;28;20205;-74
2023/12/16 08:10:18;;;;;;;11.37;4.00;;;;;;;6.34;82.50;103014.91;5050516;28;20206;-74
2023/12/16 08:12:45;;;;;;;8.37;3.27;;;;;;;6.37;83.09;103006.97;5050151;28;20220;-76
2023/12/16 08:15:11;;;;;;;10.77;3.70;;;;;;;6.39;82.38;103018.41;5053221;28;20584;-75
2023/12/16 08:17:38;;;;;;;8.87;2.63;;;;;;;6.36;82.46;103014.03;5052637;28;20542;-76
2023/12/16 08:20:05;;;;;;;11.57;2.97;;;;;;;6.40;82.16;103004.28;5047500;28;20198;-77
2023/12/16 08:22:31;;;;;;;5.60;2.57;;;;;;;6.43;82.53;102988.41;5052884;28;20245;-77
2023/12/16 08:24:59;;;;;;;8.77;3.17;;;;;;;6.44;82.54;102984.84;5050939;28;20210;-76
2023/12/16 08:27:26;;;;;;;7.50;1.83;;;;;;;6.48;81.51;102979.50;5058045;28;20432;-76
2023/12/16 08:29:52;;;;;;;8.93;2.07;;;;;;;6.51;81.73;102981.25;5050441;28;20228;-75
2023/12/16 08:32:19;;;;;;;13.27;2.93;;;;;;;6.50;82.08;102990.06;5054307;28;20225;-76
2023/12/16 08:34:45;;;;;;;10.53;2.37;;;;;;;6.55;81.37;102991.78;5056845;28;20236;-77
2023/12/16 08:37:12;;;;;;;9.37;2.60;;;;;;;6.56;81.93;102985.59;5054341;28;20205;-77
2023/12/16 08:39:38;;;;;;;7.07;2.60;;;;;;;6.56;82.21;102995.31;5055353;28;20192;-76
2023/12/16 08:42:06;;;;;;;10.93;3.60;;;;;;;6.56;82.74;102990.03;5050995;28;20279;-76
2023/12/16 08:44:33;;;;;;;10.70;3.30;;;;;;;6.63;81.56;102997.88;5055599;28;20216;-77
2023/12/16 08:47:00;;;;;;;9.23;3.07;;;;;;;6.63;82.40;103005.81;5050776;28;20216;-76
2023/12/16 08:49:26;;;;;;;8.87;2.47;;;;;;;6.64;82.78;103004.06;5054036;28;20225;-77
2023/12/16 08:51:54;;;;;;;9.10;2.90;;;;;;;6.72;81.46;102996.03;5048299;28;20220;-75
2023/12/16 08:54:20;;;;;;;9.57;3.13;;;;;;;6.74;81.44;103008.38;5054282;28;20253;-76
2023/12/16 08:56:47;;;;;;;9.90;3.40;;;;;;;6.78;80.96;102991.56;5049407;28;20676;-77
2023/12/16 08:59:14;;;;;;;7.27;2.77;;;;;;;6.83;81.83;102988.84;5051702;28;20210;-76
2023/12/16 09:01:41;;;;;;;9.47;2.43;;;;;;;6.84;82.03;102991.50;5052372;28;20236;-76
2023/12/16 09:04:07;;;;;;;9.83;3.00;;;;;;;6.87;81.41;102991.47;5047543;28;20198;-76
2023/12/16 09:06:37;;;;;;;7.97;2.53;;;;;;;6.90;81.30;102988.78;5050416;28;20209;-77
2023/12/16 09:09:04;;;;;;;8.67;2.00;;;;;;;6.97;80.39;102993.13;5055862;28;20229;-76
2023/12/16 09:11:30;;;;;;;11.67;2.90;;;;;;;6.99;81.30;102992.25;5049220;28;20221;-76
2023/12/16 09:13:56;;;;;;;12.70;3.40;;;;;;;7.00;80.64;102986.03;5051644;28;20209;-75
2023/12/16 09:16:24;;;;;;;6.63;2.30;;;;;;;7.05;81.47;102992.16;5051259;28;20212;-76
2023/12/16 09:18:51;;;;;;;9.20;2.70;;;;;;;7.09;81.06;102994.75;5047850;28;20199;-76
2023/12/16 09:21:18;;;;;;;7.87;2.60;;;;;;;7.14;80.88;102989.41;5051192;28;20229;-75
2023/12/16 09:23:44;;;;;;;8.40;2.63;;;;;;;7.19;80.70;102992.88;5050815;28;20201;-75
2023/12/16 09:26:11;;;;;;;7.30;2.30;;;;;;;7.24;80.99;103001.66;5052468;28;20205;-77
2023/12/16 09:28:37;;;;;;;7.83;2.67;;;;;;;7.33;80.46;102985.66;5041741;28;20229;-77
2023/12/16 09:31:04;;;;;;;10.87;3.60;;;;;;;7.37;79.79;102982.03;5050697;28;20221;-76
2023/12/16 09:33:32;;;;;;;8.73;3.43;;;;;;;7.42;80.49;102980.22;5045805;28;20225;-77
2023/12/16 09:35:58;;;;;;;11.80;3.13;;;;;;;7.48;80.02;102989.88;5052346;28;20205;-76
2023/12/16 09:38:25;;;;;;;11.17;3.00;;;;;;;7.54;79.54;102995.06;5045196;28;20206;-75
2023/12/16 09:40:52;;;;;;;8.97;3.07;;;;;;;7.57;79.33;102995.91;5051620;28;20204;-78
2023/12/16 09:43:20;;;;;;;8.13;3.33;;;;;;;7.62;79.24;102994.06;5045023;28;20212;-76
2023/12/16 09:45:47;;;;;;;7.67;3.07;;;;;;;7.64;79.64;102997.59;5055400;28;20209;-77
2023/12/16 09:48:16;;;;;;;5.40;2.43;;;;;;;7.69;79.52;103004.63;5051240;28;20209;-77
2023/12/16 09:50:44;;;;;;;11.57;3.77;;;;;;;7.69;79.45;103005.50;5049012;28;20224;-77
2023/12/16 09:53:12;;;;;;;11.73;3.13;;;;;;;7.70;78.74;102983.38;5054188;28;20205;-77
2023/12/16 09:55:38;;;;;;;9.07;3.03;;;;;;;7.71;78.99;102992.19;5052663;28;20197;-75
2023/12/16 09:58:05;;;;;;;11.37;2.70;;;;;;;7.75;79.39;103001.84;5044564;28;20680;-75
2023/12/16 10:00:32;;;;;;;7.87;2.57;;;;;;;7.75;79.65;103001.84;5048751;28;20206;-76
2023/12/16 10:03:00;;;;;;;9.23;2.90;;;;;;;7.76;80.07;102999.19;5053675;28;20652;-74
2023/12/16 10:05:28;;;;;;;8.30;2.90;;;;;;;7.74;80.09;102984.19;5048977;28;20231;-77
2023/12/16 10:08:01;;;;;;;7.80;2.43;;;;;;;7.77;80.38;102994.75;5054500;28;20209;-77
2023/12/16 10:10:27;;;;;;;8.40;2.73;;;;;;;7.76;81.21;102990.34;5051360;28;20229;-77
2023/12/16 10:12:54;;;;;;;9.20;2.53;;;;;;;7.80;80.66;102995.59;5053172;28;20397;-77
2023/12/16 10:15:30;;;;;;;8.80;2.67;;;;;;;7.83;80.86;102992.91;5043943;28;20589;-77
2023/12/16 10:17:56;;;;;;;12.40;2.77;;;;;;;7.83;80.89;102995.56;5045690;28;20684;-77
2023/12/16 10:20:24;;;;;;;9.73;2.80;;;;;;;7.84;80.79;102994.66;5049201;28;20202;-77
2023/12/16 10:22:51;;;;;;;7.77;2.90;;;;;;;7.88;81.17;102990.19;5046424;28;20237;-76
2023/12/16 10:25:19;;;;;;;10.23;3.00;;;;;;;7.90;81.04;102985.72;5049361;28;20196;-77
2023/12/16 10:27:47;;;;;;;7.57;2.60;;;;;;;7.90;81.18;102980.41;5054709;28;20209;-77
2023/12/16 10:30:14;;;;;;;9.70;2.70;;;;;;;7.91;81.25;102975.06;5051186;28;20229;-78
2023/12/16 10:32:41;;;;;;;12.43;2.77;;;;;;;7.94;81.75;102969.72;5046529;28;20217;-77
2023/12/16 10:35:08;;;;;;;9.40;3.40;;;;;;;7.97;81.70;102969.69;5052673;28;20211;-75
2023/12/16 10:37:37;;;;;;;9.23;2.20;;;;;;;8.02;81.61;102964.31;5053747;28;20361;-76
2023/12/16 10:40:05;;;;;;;10.07;3.67;;;;;;;8.05;81.54;102961.63;5051264;28;20208;-76
2023/12/16 10:42:33;;;;;;;15.10;8.20;;;;;;;8.08;80.97;102950.91;5051064;28;20735;-75
2023/12/16 10:44:59;;;;;;;17.17;8.13;;;;;;;8.10;81.61;102951.78;5051209;28;20229;-76
2023/12/16 10:47:28;;;;;;;14.97;5.33;;;;;;;8.15;81.19;102955.25;5052462;28;20202;-76
2023/12/16 10:49:59;;;;;;;15.80;6.23;;;;;;;8.19;81.23;102946.34;5055711;28;20234;-75
2023/12/16 10:52:30;;;;;;;17.77;4.03;;;;;;;8.23;81.25;102941.84;5049503;28;20228;-75
2023/12/16 10:55:02;;;;;;;23.77;6.33;;;;;;;8.24;81.38;102936.50;5048083;28;21327;-75
2023/12/16 10:57:32;;;;;;;13.77;3.97;;;;;;;8.27;81.35;102924.94;5047571;28;20571;-74
2023/12/16 11:00:05;;;;;;;14.90;5.10;;;;;;;8.29;81.17;102924.03;5048790;28;20648;-75
2023/12/16 11:02:34;;;;;;;9.77;4.03;;;;;;;8.31;80.85;102924.00;5044134;28;20225;-77
2023/12/16 11:05:06;;;;;;;8.97;2.70;;;;;;;8.32;81.09;102918.69;5041840;28;20206;-77
2023/12/16 11:07:34;;;;;;;12.97;2.63;;;;;;;8.37;nan;102909.78;5052040;28;20202;-78
2023/12/16 11:10:01;;;;;;;16.73;4.63;;;;;;;8.41;82.38;102903.50;5049041;28;20221;-75
2023/12/16 11:12:28;;;;;;;7.90;3.13;;;;;;;8.44;80.78;102903.44;5050191;28;20229;-76
2023/12/16 11:14:55;;;;;;;15.87;4.20;;;;;;;8.45;81.76;102897.22;5048367;28;20680;-76
2023/12/16 11:17:29;;;;;;;10.10;4.43;;;;;;;8.47;81.24;102893.63;5047839;28;20197;-76
2023/12/16 11:20:00;;;;;;;13.13;3.87;;;;;;;8.52;80.75;102885.59;5042893;28;20213;-74
2023/12/16 11:22:26;;;;;;;11.43;4.33;;;;;;;8.53;80.92;102871.41;5040374;28;20610;-74
2023/12/16 11:24:53;;;;;;;19.97;5.03;;;;;;;8.57;80.66;102867.78;5033176;28;20979;-75